Página principal
METAR-TAF:

METAR-TAF

Aeroportos :

Dakhla, Marrocos

latitude: 23-43-05N, longitude: 015-55-55W, altura: 11 m

Observação actual do tempo

O boletim foi feito há 1 hora e 6 minutos, às 06:00 UTC
Vento 9 kt de es-nordeste
Temperatura 17°C
Humidade 88%
Pressão 1014 hPa
Visibilidade: 8000 m

METAR: GMMH 150600Z 07009KT 8000 NSC 17/15 Q1014 NOSIG

Hora: 07:06 (07:06 UTC)

Previsão

O boletim foi feito há 2 horas e 6 minutos, às 05:00 UTC
Previsão válida de 15 às 06 UTC a 16 às 12 UTC
Vento 14 kt de nordeste
Visibilidade: 8000 m
Tornando-se
de 16 às 00 UTC a 16 às 03 UTC
Nuvens dispersasa uma altura de 1300 ft

TAF: GMMH 150500Z 1506/1612 05014KT 8000 NSC BECMG 1600/1603 SCT013

Observações e previsões do tempo de mais de 4000 aeroportos (mensagens METAR e TAF).

As estações disponíveis são os pontos amarelos e vermelhos sobre o mapa.

Mova o rato sobre o mapa para ver o nome da estação.

Depois clique no ponto para visualizar as observações e previsões meteorológicas.

Para alterar o mapa : clique nos botões verdes com uma cruz preta para aumentar o zoom; no botão verde com uma pitada de zoom; ou nas setas verdes para mapas adjacentes.


METAR-TAF: